Time;durP1;ratioP1;P1;durP2;ratioP2;P2;SDS_P1;SDS_P2;PMS_P1;PMS_P2;Temp;Humidity;BMP_temperature;BMP_pressure;BME280_temperature;BME280_humidity;BME280_pressure;Samples;Min_cycle;Max_cycle;Signal;HPM_P1;HPM_P2
2023/03/24 00:00:19;;;;;;;11.63;5.38;;;14.10;99.90;;;;;;5032439;28;20045;-70
2023/03/24 00:02:45;;;;;;;12.77;5.80;;;14.10;99.90;;;;;;5031629;28;20045;-70
2023/03/24 00:05:19;;;;;;;15.52;5.70;;;14.10;99.90;;;;;;5031825;28;20021;-71
2023/03/24 00:07:45;;;;;;;13.25;5.75;;;14.10;99.90;;;;;;5032879;28;20375;-71
2023/03/24 00:10:13;;;;;;;15.48;5.70;;;14.10;99.90;;;;;;5033139;28;20034;-71
2023/03/24 00:12:41;;;;;;;12.00;6.05;;;14.00;99.90;;;;;;5024025;28;20049;-70
2023/03/24 00:15:12;;;;;;;16.50;6.15;;;14.10;99.90;;;;;;5012447;28;20049;-70
2023/03/24 00:17:38;;;;;;;14.77;7.00;;;14.00;99.90;;;;;;5012460;28;20513;-70
2023/03/24 00:20:07;;;;;;;15.60;6.57;;;14.00;99.90;;;;;;5013054;28;20034;-70
2023/03/24 00:22:33;;;;;;;13.77;6.05;;;14.00;99.90;;;;;;5012519;28;20419;-70
2023/03/24 00:25:03;;;;;;;16.80;6.90;;;14.00;99.90;;;;;;5012616;28;20037;-71
2023/03/24 00:27:30;;;;;;;14.30;6.60;;;13.90;99.90;;;;;;5012490;28;20045;-70
2023/03/24 00:29:58;;;;;;;14.40;6.60;;;13.90;99.90;;;;;;5017870;28;20018;-71
2023/03/24 00:32:24;;;;;;;9.82;5.82;;;14.00;99.90;;;;;;5032314;28;20034;-70
2023/03/24 00:34:51;;;;;;;14.60;5.97;;;14.00;99.90;;;;;;5032699;28;20367;-71
2023/03/24 00:37:17;;;;;;;14.80;6.53;;;14.00;99.90;;;;;;5032648;28;20037;-70
2023/03/24 00:39:43;;;;;;;14.35;6.32;;;14.00;99.90;;;;;;5032501;28;20056;-70
2023/03/24 00:42:09;;;;;;;13.57;6.00;;;13.90;99.90;;;;;;5031630;28;20054;-70
2023/03/24 00:44:36;;;;;;;11.25;6.85;;;14.00;99.90;;;;;;5032568;28;20034;-71
2023/03/24 00:47:02;;;;;;;13.75;6.43;;;14.00;99.90;;;;;;5032187;28;20387;-71
2023/03/24 00:49:41;;;;;;;11.95;6.38;;;14.00;99.90;;;;;;5032163;28;20025;-71
2023/03/24 00:52:19;;;;;;;12.25;6.65;;;13.90;99.90;;;;;;5032463;28;20408;-70
2023/03/24 00:54:46;;;;;;;13.82;7.13;;;13.90;99.90;;;;;;5031061;28;20042;-70
2023/03/24 00:57:13;;;;;;;15.13;6.63;;;13.90;99.90;;;;;;5031970;28;20025;-71
2023/03/24 00:59:47;;;;;;;16.73;6.22;;;13.80;99.90;;;;;;5032700;28;20038;-71
2023/03/24 01:02:24;;;;;;;19.35;6.65;;;13.80;99.90;;;;;;5032022;28;20050;-71
2023/03/24 01:04:54;;;;;;;13.05;6.65;;;13.80;99.90;;;;;;5036316;28;20033;-70
2023/03/24 01:07:21;;;;;;;13.38;6.68;;;13.90;99.90;;;;;;5036759;28;20036;-70
2023/03/24 01:09:56;;;;;;;16.70;6.80;;;13.90;99.90;;;;;;5036035;28;20026;-70
2023/03/24 01:12:26;;;;;;;14.23;6.07;;;13.90;99.90;;;;;;5028297;28;20041;-71
2023/03/24 01:14:52;;;;;;;10.82;6.63;;;13.90;99.90;;;;;;5016321;28;20028;-71
2023/03/24 01:17:21;;;;;;;16.08;7.50;;;13.90;99.90;;;;;;5016084;28;20402;-69
2023/03/24 01:19:47;;;;;;;14.27;6.28;;;13.90;99.90;;;;;;5016059;28;20034;-71
2023/03/24 01:22:14;;;;;;;15.10;6.43;;;13.90;99.90;;;;;;5015925;28;20061;-71
2023/03/24 01:24:42;;;;;;;12.43;6.25;;;13.90;99.90;;;;;;5016110;28;20041;-70
2023/03/24 01:27:08;;;;;;;14.15;6.15;;;13.80;99.90;;;;;;5015564;28;20392;-71
2023/03/24 01:29:35;;;;;;;16.35;6.72;;;13.80;99.90;;;;;;5018308;28;20379;-71
2023/03/24 01:32:01;;;;;;;16.73;6.43;;;13.80;99.90;;;;;;5035348;28;20049;-70
2023/03/24 01:34:27;;;;;;;14.45;6.30;;;13.80;99.90;;;;;;5035621;28;20032;-70
2023/03/24 01:36:53;;;;;;;14.45;6.40;;;13.70;99.90;;;;;;5035639;28;20029;-71
2023/03/24 01:39:19;;;;;;;16.73;6.40;;;13.60;99.90;;;;;;5035516;28;20030;-70
2023/03/24 01:41:45;;;;;;;12.43;6.53;;;13.70;99.90;;;;;;5035566;28;20072;-70
2023/03/24 01:44:31;;;;;;;20.67;7.53;;;13.60;99.90;;;;;;5035322;28;20030;-70
2023/03/24 01:46:58;;;;;;;9.52;6.05;;;13.50;99.90;;;;;;5035166;28;20370;-70
2023/03/24 01:49:30;;;;;;;12.35;6.10;;;13.50;99.90;;;;;;5035344;28;20033;-70
2023/03/24 01:51:58;;;;;;;12.50;6.07;;;13.50;99.90;;;;;;5034119;28;20022;-71
2023/03/24 01:54:31;;;;;;;15.93;6.25;;;13.50;99.90;;;;;;5035015;28;20401;-71
2023/03/24 01:57:05;;;;;;;14.70;5.95;;;13.40;99.90;;;;;;5034121;28;20050;-71
2023/03/24 01:59:34;;;;;;;19.75;6.55;;;13.40;99.90;;;;;;5033928;28;20041;-71
2023/03/24 02:02:03;;;;;;;18.30;6.47;;;13.50;99.90;;;;;;5034542;28;20053;-70
2023/03/24 02:04:33;;;;;;;17.15;6.25;;;13.50;99.90;;;;;;5033843;28;20029;-71
2023/03/24 02:07:07;;;;;;;15.57;6.47;;;13.50;99.90;;;;;;5033327;28;20038;-71
2023/03/24 02:09:33;;;;;;;13.80;6.30;;;13.50;99.90;;;;;;5017501;28;20042;-71
2023/03/24 02:12:01;;;;;;;11.80;6.25;;;13.50;99.90;;;;;;5031682;28;20041;-70
2023/03/24 02:14:28;;;;;;;21.83;7.10;;;13.50;99.90;;;;;;5014020;28;20049;-71
2023/03/24 02:17:03;;;;;;;16.95;7.47;;;13.60;99.90;;;;;;5013468;28;20045;-70
2023/03/24 02:20:06;;;;;;;13.18;6.30;;;13.60;99.90;;;;;;5030962;28;20494;-71
2023/03/24 02:22:40;;;;;;;20.65;7.45;;;13.50;99.90;;;;;;5013193;28;20046;-71
2023/03/24 02:25:24;;;;;;;20.65;6.70;;;13.50;99.90;;;;;;5012994;28;20041;-71
2023/03/24 02:27:51;;;;;;;15.32;6.65;;;13.50;99.90;;;;;;5014822;28;20026;-71
2023/03/24 02:30:29;;;;;;;17.00;7.00;;;13.40;99.90;;;;;;5022517;28;20037;-71
2023/03/24 02:33:01;;;;;;;21.98;6.38;;;13.40;99.90;;;;;;5034510;28;20032;-71
2023/03/24 02:35:59;;;;;;;18.15;7.07;;;13.50;99.90;;;;;;5034475;28;20033;-70
2023/03/24 02:38:37;;;;;;;16.48;6.03;;;13.40;99.90;;;;;;5033023;28;20467;-70
2023/03/24 02:41:32;;;;;;;17.55;5.53;;;13.50;99.90;;;;;;5034322;28;20036;-70
2023/03/24 02:44:20;;;;;;;25.90;6.80;;;13.50;99.90;;;;;;5033733;28;20038;-70
2023/03/24 02:46:59;;;;;;;18.48;6.25;;;13.50;99.90;;;;;;5032769;28;20045;-70
2023/03/24 02:49:39;;;;;;;15.95;5.63;;;13.50;99.90;;;;;;5034227;28;20026;-70
2023/03/24 02:52:32;;;;;;;15.23;6.00;;;13.40;99.90;;;;;;5032825;28;20036;-71
2023/03/24 02:55:17;;;;;;;23.77;6.97;;;13.40;99.90;;;;;;5032958;28;20040;-70
2023/03/24 02:58:03;;;;;;;15.25;6.18;;;13.40;99.90;;;;;;5032789;28;20498;-71
2023/03/24 03:00:34;;;;;;;22.25;7.45;;;13.40;99.90;;;;;;5033879;28;20026;-70
2023/03/24 03:03:04;;;;;;;14.82;6.07;;;13.40;99.90;;;;;;5032468;28;20049;-70
2023/03/24 03:05:40;;;;;;;18.07;7.07;;;13.30;99.90;;;;;;5032795;28;20025;-71
2023/03/24 03:08:07;;;;;;;17.08;6.70;;;13.30;99.90;;;;;;5032402;28;20261;-70
2023/03/24 03:10:38;;;;;;;15.55;6.45;;;13.30;99.90;;;;;;5016430;28;20034;-70
2023/03/24 03:13:19;;;;;;;15.43;6.95;;;13.40;99.90;;;;;;5004671;28;20033;-71
2023/03/24 03:15:47;;;;;;;25.67;6.72;;;13.30;99.90;;;;;;5012090;28;20037;-71
2023/03/24 03:18:29;;;;;;;17.23;6.35;;;13.30;99.90;;;;;;5029271;28;20466;-70
2023/03/24 03:20:59;;;;;;;24.85;6.63;;;13.30;99.90;;;;;;5029762;28;20030;-71
2023/03/24 03:23:30;;;;;;;20.88;6.75;;;13.30;99.90;;;;;;5029221;28;20438;-70
2023/03/24 03:26:03;;;;;;;17.90;6.32;;;13.30;99.90;;;;;;5028904;28;20042;-70
2023/03/24 03:28:31;;;;;;;22.85;6.13;;;13.30;99.90;;;;;;5012078;28;20034;-70
2023/03/24 03:30:58;;;;;;;20.85;6.80;;;13.20;99.90;;;;;;5025711;28;20370;-70
2023/03/24 03:33:45;;;;;;;17.88;6.80;;;13.20;99.90;;;;;;5033596;28;20045;-70
2023/03/24 03:36:17;;;;;;;23.40;6.80;;;13.10;99.90;;;;;;5031976;28;20045;-70
2023/03/24 03:38:56;;;;;;;24.98;7.30;;;13.00;99.90;;;;;;5015761;28;20025;-70
2023/03/24 03:41:22;;;;;;;17.05;6.70;;;13.10;99.90;;;;;;5031546;28;20045;-71
2023/03/24 03:43:49;;;;;;;20.75;6.80;;;13.10;99.90;;;;;;5032044;28;20037;-71
2023/03/24 03:46:15;;;;;;;19.05;6.40;;;13.20;99.90;;;;;;5032951;28;20040;-71
2023/03/24 03:48:41;;;;;;;21.08;5.90;;;13.10;99.90;;;;;;5015798;28;20513;-70
2023/03/24 03:51:08;;;;;;;20.48;6.60;;;13.10;99.90;;;;;;5032650;28;20033;-71
2023/03/24 03:53:55;;;;;;;17.67;7.25;;;13.00;99.90;;;;;;5031737;28;20041;-70
2023/03/24 03:56:24;;;;;;;24.35;7.20;;;13.00;99.90;;;;;;5031701;28;20044;-71
2023/03/24 03:58:52;;;;;;;19.73;6.80;;;13.10;99.90;;;;;;5033496;28;20037;-70
2023/03/24 04:01:20;;;;;;;19.52;6.45;;;13.10;99.90;;;;;;5030900;28;20026;-70
2023/03/24 04:04:07;;;;;;;21.23;6.72;;;13.10;99.90;;;;;;5015348;28;20386;-71
2023/03/24 04:06:56;;;;;;;21.70;6.78;;;13.10;99.90;;;;;;5015259;28;20029;-70
2023/03/24 04:09:55;;;;;;;21.58;7.25;;;13.10;99.90;;;;;;5031751;28;20036;-70
2023/03/24 04:12:27;;;;;;;17.60;6.18;;;13.10;99.90;;;;;;5025431;28;20044;-71
2023/03/24 04:14:56;;;;;;;23.15;6.90;;;13.00;99.90;;;;;;5013057;28;20042;-71
2023/03/24 04:17:30;;;;;;;18.95;6.80;;;13.00;99.90;;;;;;5012435;28;20030;-70
2023/03/24 04:20:00;;;;;;;19.40;6.88;;;13.00;99.90;;;;;;5011057;28;20375;-71
2023/03/24 04:22:30;;;;;;;22.08;7.07;;;12.90;99.90;;;;;;5011419;28;20045;-71
2023/03/24 04:25:00;;;;;;;21.13;6.38;;;13.00;99.90;;;;;;5012802;28;20030;-70
2023/03/24 04:27:37;;;;;;;19.00;6.40;;;12.90;99.90;;;;;;4995736;28;20025;-70
2023/03/24 04:30:22;;;;;;;20.95;6.80;;;12.90;99.90;;;;;;5017138;28;20030;-70
2023/03/24 04:33:04;;;;;;;19.20;7.10;;;12.90;99.90;;;;;;5015615;28;20021;-70
2023/03/24 04:35:33;;;;;;;22.63;7.65;;;12.90;99.90;;;;;;5015931;28;20029;-71
2023/03/24 04:38:03;;;;;;;15.40;6.00;;;12.80;99.90;;;;;;5014289;28;20022;-70
2023/03/24 04:40:33;;;;;;;14.93;6.28;;;12.80;99.90;;;;;;5015186;28;20033;-71
2023/03/24 04:43:02;;;;;;;26.50;6.30;;;12.70;99.90;;;;;;5014672;28;20057;-71
2023/03/24 04:45:32;;;;;;;21.73;6.47;;;12.70;99.90;;;;;;5030848;28;20033;-70
2023/03/24 04:48:03;;;;;;;17.75;6.30;;;12.70;99.90;;;;;;5032184;28;20040;-70
2023/03/24 04:50:38;;;;;;;;;;;12.70;99.90;;;;;;5032673;28;20038;-71
2023/03/24 04:53:06;;;;;;;21.85;6.18;;;12.60;99.90;;;;;;5032246;28;19905;-70
2023/03/24 04:55:35;;;;;;;17.58;6.93;;;12.60;99.90;;;;;;5032377;28;20029;-71
2023/03/24 04:58:01;;;;;;;22.50;7.00;;;12.60;99.90;;;;;;5032260;28;20034;-71
2023/03/24 05:00:27;;;;;;;21.02;6.13;;;12.60;99.90;;;;;;5031939;28;20037;-70
2023/03/24 05:02:53;;;;;;;16.10;6.28;;;12.60;99.90;;;;;;5032036;28;20045;-70
2023/03/24 05:05:19;;;;;;;26.27;6.90;;;12.60;99.90;;;;;;5032113;28;20032;-70
2023/03/24 05:07:45;;;;;;;16.27;6.18;;;12.50;99.90;;;;;;5031998;28;20036;-70
2023/03/24 05:10:11;;;;;;;20.95;6.60;;;12.50;99.90;;;;;;5032066;28;20070;-70
2023/03/24 05:12:38;;;;;;;22.48;6.68;;;12.50;99.90;;;;;;5024046;28;20038;-71
2023/03/24 05:15:05;;;;;;;25.42;6.40;;;12.40;99.90;;;;;;5011918;28;20056;-70
2023/03/24 05:17:31;;;;;;;23.10;6.50;;;12.40;99.90;;;;;;5011985;28;20037;-70
2023/03/24 05:19:57;;;;;;;21.83;6.47;;;12.40;99.90;;;;;;5012338;28;20026;-71
2023/03/24 05:22:23;;;;;;;25.25;6.35;;;12.40;99.90;;;;;;5011719;28;20063;-71
2023/03/24 05:24:50;;;;;;;22.42;6.80;;;12.30;99.90;;;;;;5012257;28;20030;-71
2023/03/24 05:27:16;;;;;;;22.98;6.05;;;12.30;99.90;;;;;;5012214;28;20022;-71
2023/03/24 05:29:42;;;;;;;25.50;6.22;;;12.30;99.90;;;;;;5015655;28;20029;-71
2023/03/24 05:32:08;;;;;;;19.30;6.95;;;12.30;99.90;;;;;;5031506;28;20493;-70
2023/03/24 05:34:34;;;;;;;32.55;7.07;;;12.30;99.90;;;;;;5031813;28;20151;-71
2023/03/24 05:37:00;;;;;;;18.88;6.50;;;12.20;99.90;;;;;;5031896;28;20045;-71
2023/03/24 05:39:26;;;;;;;20.50;7.00;;;12.30;99.90;;;;;;5031918;28;20088;-71
2023/03/24 05:41:52;;;;;;;31.48;7.70;;;12.30;99.90;;;;;;5031761;28;20025;-71
2023/03/24 05:44:18;;;;;;;27.88;7.07;;;12.20;99.90;;;;;;5031764;28;20033;-70
2023/03/24 05:46:44;;;;;;;36.22;8.63;;;12.20;99.90;;;;;;5031002;28;20033;-71
2023/03/24 05:49:11;;;;;;;25.73;6.78;;;12.20;99.90;;;;;;5033777;28;20037;-71
2023/03/24 05:51:37;;;;;;;27.42;7.40;;;12.10;99.90;;;;;;5035537;28;20431;-71
2023/03/24 05:54:04;;;;;;;20.98;6.70;;;12.00;99.90;;;;;;5035273;28;20032;-71
2023/03/24 05:56:31;;;;;;;24.27;6.75;;;11.90;99.90;;;;;;5035293;28;20496;-71
2023/03/24 05:58:57;;;;;;;24.05;7.22;;;11.90;99.90;;;;;;5035127;28;20037;-71
2023/03/24 06:01:24;;;;;;;23.10;6.65;;;11.90;99.90;;;;;;5034529;28;20482;-70
2023/03/24 06:03:50;;;;;;;26.90;6.97;;;11.90;99.90;;;;;;5035358;28;20056;-71
2023/03/24 06:06:17;;;;;;;18.70;6.93;;;12.00;99.90;;;;;;5035032;28;20493;-70
2023/03/24 06:08:46;;;;;;;26.42;7.05;;;11.90;99.90;;;;;;5035392;28;20048;-70
2023/03/24 06:11:12;;;;;;;27.50;6.90;;;11.90;99.90;;;;;;5035044;28;20030;-71
2023/03/24 06:13:39;;;;;;;30.95;7.40;;;11.90;99.90;;;;;;5018070;28;20466;-70
2023/03/24 06:16:05;;;;;;;32.35;7.53;;;11.90;99.90;;;;;;5014731;28;20034;-70
2023/03/24 06:18:32;;;;;;;29.17;7.30;;;12.00;99.90;;;;;;5015117;28;20411;-71
2023/03/24 06:20:58;;;;;;;25.52;6.95;;;12.00;99.90;;;;;;5014924;28;20057;-71
2023/03/24 06:23:26;;;;;;;32.30;7.45;;;12.00;99.90;;;;;;5014171;28;20045;-70
2023/03/24 06:25:53;;;;;;;25.60;7.68;;;11.90;99.90;;;;;;5014982;28;20042;-70
2023/03/24 06:28:20;;;;;;;32.70;8.68;;;11.90;99.90;;;;;;5014781;28;20037;-71
2023/03/24 06:30:47;;;;;;;26.77;7.70;;;11.90;99.90;;;;;;5026368;28;20048;-70
2023/03/24 06:33:14;;;;;;;33.55;7.18;;;11.80;99.90;;;;;;5035028;28;20046;-71
2023/03/24 06:35:40;;;;;;;28.73;7.55;;;11.90;99.90;;;;;;5034508;28;20032;-70
2023/03/24 06:38:06;;;;;;;29.73;7.10;;;11.90;99.90;;;;;;5033244;28;20045;-70
2023/03/24 06:40:32;;;;;;;28.60;6.90;;;11.90;99.90;;;;;;5034458;28;20481;-71
2023/03/24 06:42:59;;;;;;;33.28;7.82;;;12.00;99.90;;;;;;5033238;28;20060;-71
2023/03/24 06:45:25;;;;;;;31.45;8.55;;;12.10;99.90;;;;;;5033650;28;20041;-70
2023/03/24 06:47:54;;;;;;;28.05;7.15;;;12.10;99.90;;;;;;5034379;28;20041;-70
2023/03/24 06:50:21;;;;;;;29.83;7.07;;;12.20;99.90;;;;;;5034622;28;20045;-70
2023/03/24 06:52:47;;;;;;;19.58;6.88;;;12.20;99.90;;;;;;5034199;28;20041;-70
2023/03/24 06:55:13;;;;;;;23.77;6.75;;;12.20;99.90;;;;;;5034126;28;20026;-71
2023/03/24 06:57:39;;;;;;;27.60;7.25;;;12.20;99.90;;;;;;5034124;28;20050;-71
2023/03/24 07:00:07;;;;;;;27.63;7.60;;;12.20;99.90;;;;;;5033275;28;20412;-70
2023/03/24 07:02:34;;;;;;;28.85;8.20;;;12.30;99.90;;;;;;5033953;28;20398;-71
2023/03/24 07:05:08;;;;;;;31.60;6.88;;;12.40;99.90;;;;;;5034214;28;20525;-70
2023/03/24 07:07:34;;;;;;;33.95;7.03;;;12.50;99.90;;;;;;5034301;28;20042;-71
2023/03/24 07:10:01;;;;;;;27.30;8.02;;;12.60;99.90;;;;;;5032666;28;20041;-70
2023/03/24 07:12:27;;;;;;;32.83;10.02;;;12.80;99.90;;;;;;5027379;28;20052;-71
2023/03/24 07:14:54;;;;;;;23.30;7.97;;;13.00;99.90;;;;;;5014255;28;20030;-71
2023/03/24 07:17:20;;;;;;;30.23;7.28;;;13.10;99.90;;;;;;5013390;28;20030;-70
2023/03/24 07:19:46;;;;;;;34.28;7.65;;;13.10;99.90;;;;;;5013946;28;20033;-71
2023/03/24 07:22:12;;;;;;;30.50;8.05;;;13.10;99.90;;;;;;5013667;28;20501;-71
2023/03/24 07:24:39;;;;;;;31.05;8.07;;;13.10;99.90;;;;;;5013680;28;20050;-71
2023/03/24 07:27:05;;;;;;;26.10;8.18;;;13.10;99.90;;;;;;5013820;28;20041;-71
2023/03/24 07:29:31;;;;;;;24.33;7.13;;;13.00;99.90;;;;;;5015332;28;20037;-71
2023/03/24 07:31:59;;;;;;;32.30;9.15;;;13.00;99.90;;;;;;5033009;28;20029;-71
2023/03/24 07:34:26;;;;;;;27.42;7.75;;;13.00;99.90;;;;;;5033712;28;20034;-71
2023/03/24 07:36:52;;;;;;;24.52;7.80;;;13.10;99.90;;;;;;5033535;28;20048;-71
2023/03/24 07:39:19;;;;;;;27.05;7.30;;;13.30;99.90;;;;;;5033413;28;20021;-71
2023/03/24 07:41:46;;;;;;;30.85;8.73;;;13.40;99.90;;;;;;5033165;28;20037;-71
2023/03/24 07:44:12;;;;;;;28.92;8.75;;;13.50;99.90;;;;;;5032913;28;20037;-71
2023/03/24 07:46:38;;;;;;;27.55;8.55;;;13.50;99.90;;;;;;5032685;28;20033;-71
2023/03/24 07:49:05;;;;;;;23.63;7.90;;;13.40;99.90;;;;;;5033132;28;20037;-70
2023/03/24 07:51:31;;;;;;;21.80;7.57;;;13.50;99.90;;;;;;5033513;28;20390;-70
2023/03/24 07:53:57;;;;;;;31.15;6.90;;;13.70;99.90;;;;;;5033035;28;20030;-70
2023/03/24 07:56:23;;;;;;;23.90;7.63;;;13.90;99.90;;;;;;5032628;28;20021;-70
2023/03/24 07:58:50;;;;;;;23.40;8.63;;;14.00;99.90;;;;;;5032833;28;20021;-71
2023/03/24 08:01:16;;;;;;;25.08;7.78;;;14.00;99.90;;;;;;5033030;28;20033;-71
2023/03/24 08:03:43;;;;;;;22.35;7.05;;;14.10;99.90;;;;;;5033371;28;20056;-71
2023/03/24 08:06:09;;;;;;;25.77;7.18;;;14.10;99.90;;;;;;5033255;28;20474;-70
2023/03/24 08:08:35;;;;;;;26.40;7.18;;;14.00;99.90;;;;;;5032793;28;20382;-71
2023/03/24 08:11:04;;;;;;;25.70;6.43;;;14.00;99.90;;;;;;5031046;28;20772;-71
2023/03/24 08:13:31;;;;;;;24.15;6.80;;;14.10;99.90;;;;;;5015130;28;20025;-71
2023/03/24 08:15:57;;;;;;;27.98;8.15;;;14.20;99.90;;;;;;5012765;28;20078;-71
2023/03/24 08:18:24;;;;;;;25.77;7.13;;;14.20;99.90;;;;;;5012906;28;20034;-71
2023/03/24 08:20:53;;;;;;;29.08;6.65;;;14.30;99.90;;;;;;5013148;28;20045;-71
2023/03/24 08:23:19;;;;;;;28.70;5.65;;;14.40;99.90;;;;;;5028518;28;20044;-71
2023/03/24 08:25:46;;;;;;;29.45;6.82;;;14.60;99.90;;;;;;5012708;28;20360;-70
2023/03/24 08:28:12;;;;;;;21.10;6.32;;;14.60;99.90;;;;;;5013063;28;20046;-70
2023/03/24 08:30:42;;;;;;;25.08;6.57;;;14.60;99.90;;;;;;5023698;28;20042;-71
2023/03/24 08:33:12;;;;;;;21.90;6.82;;;14.70;99.90;;;;;;5032803;28;20042;-71
2023/03/24 08:35:38;;;;;;;22.50;7.20;;;14.80;99.90;;;;;;5032482;28;20033;-71
2023/03/24 08:38:04;;;;;;;28.27;7.80;;;14.80;99.90;;;;;;5032647;28;20042;-71
2023/03/24 08:40:33;;;;;;;27.58;7.45;;;14.80;99.90;;;;;;5032480;28;20259;-71
2023/03/24 08:43:01;;;;;;;22.52;6.75;;;14.90;99.90;;;;;;5032486;28;20046;-71
2023/03/24 08:45:29;;;;;;;24.40;6.05;;;14.90;99.90;;;;;;5030599;28;20037;-70
2023/03/24 08:47:57;;;;;;;24.92;6.70;;;15.00;99.90;;;;;;5032211;28;20026;-71
2023/03/24 08:50:26;;;;;;;20.02;6.43;;;15.20;99.90;;;;;;5032471;28;20495;-70
2023/03/24 08:52:53;;;;;;;28.35;7.93;;;15.30;99.90;;;;;;5032527;28;20487;-71
2023/03/24 08:55:19;;;;;;;28.70;6.85;;;15.20;99.90;;;;;;5032004;28;20030;-70
2023/03/24 08:57:46;;;;;;;21.02;6.45;;;15.10;99.90;;;;;;5031988;28;20030;-71
2023/03/24 09:00:14;;;;;;;24.80;7.03;;;15.10;99.90;;;;;;5031565;28;20029;-71
2023/03/24 09:02:50;;;;;;;20.63;6.57;;;15.20;99.90;;;;;;5032308;28;20037;-70
2023/03/24 09:05:18;;;;;;;25.40;7.80;;;15.40;99.90;;;;;;5032447;28;20048;-71
2023/03/24 09:07:44;;;;;;;27.95;7.15;;;15.50;99.90;;;;;;5032040;28;20204;-70
2023/03/24 09:10:10;;;;;;;23.42;6.78;;;15.50;99.90;;;;;;5031900;28;20034;-71
2023/03/24 09:12:37;;;;;;;19.85;6.68;;;15.70;99.90;;;;;;5023751;28;20022;-71
2023/03/24 09:15:03;;;;;;;22.25;6.60;;;15.80;99.90;;;;;;5011981;28;20041;-70
2023/03/24 09:17:30;;;;;;;23.50;6.53;;;15.90;99.90;;;;;;5012109;28;20049;-71
2023/03/24 09:19:56;;;;;;;22.00;5.95;;;15.90;99.90;;;;;;5012420;28;20383;-70
2023/03/24 09:22:22;;;;;;;21.35;7.07;;;15.90;99.90;;;;;;5011928;28;20129;-71
2023/03/24 09:24:48;;;;;;;20.67;6.60;;;15.90;99.90;;;;;;5014481;28;20049;-71
2023/03/24 09:27:15;;;;;;;20.70;7.07;;;16.00;99.90;;;;;;5016263;28;20037;-71
2023/03/24 09:29:41;;;;;;;19.52;6.13;;;16.20;99.90;;;;;;5019098;28;20037;-71
2023/03/24 09:32:07;;;;;;;24.67;6.63;;;16.40;99.90;;;;;;5035442;28;20498;-70
2023/03/24 09:34:33;;;;;;;19.98;5.97;;;16.40;99.90;;;;;;5035635;28;20471;-71
2023/03/24 09:37:00;;;;;;;21.15;7.00;;;16.40;99.90;;;;;;5034454;28;20053;-71
2023/03/24 09:39:26;;;;;;;20.70;6.35;;;16.40;99.90;;;;;;5033857;28;20041;-71
2023/03/24 09:41:54;;;;;;;19.23;6.05;;;16.50;99.90;;;;;;5035762;28;20052;-71
2023/03/24 09:44:33;;;;;;;26.05;5.80;;;16.40;99.90;;;;;;5035580;28;20068;-71
2023/03/24 09:47:01;;;;;;;24.73;6.95;;;16.30;99.90;;;;;;5033909;28;20525;-71
2023/03/24 09:49:28;;;;;;;19.40;6.60;;;16.20;99.90;;;;;;5017893;28;20029;-70
2023/03/24 09:51:59;;;;;;;21.90;5.70;;;16.20;99.90;;;;;;5033873;28;20033;-70
2023/03/24 09:54:41;;;;;;;20.85;6.40;;;16.10;99.90;;;;;;5035429;28;20037;-71
2023/03/24 09:57:21;;;;;;;21.50;7.20;;;16.20;99.90;;;;;;5033601;28;20064;-72
2023/03/24 09:59:48;;;;;;;24.33;6.38;;;16.20;99.90;;;;;;5018090;28;20046;-71
2023/03/24 10:02:18;;;;;;;18.50;6.30;;;16.00;99.90;;;;;;5034618;28;20394;-71
2023/03/24 10:04:44;;;;;;;24.75;6.90;;;16.00;99.90;;;;;;5035352;28;20402;-71
2023/03/24 10:07:24;;;;;;;18.70;6.25;;;15.90;99.90;;;;;;5034716;28;20033;-70
2023/03/24 10:09:58;;;;;;;21.98;5.95;;;15.70;99.90;;;;;;5018630;28;20025;-71
2023/03/24 10:12:39;;;;;;;21.95;7.30;;;15.60;99.90;;;;;;5028750;28;20049;-71
2023/03/24 10:15:09;;;;;;;25.25;6.60;;;15.70;99.90;;;;;;5029577;28;20038;-70
2023/03/24 10:17:35;;;;;;;21.92;7.15;;;15.80;99.90;;;;;;5013644;28;20042;-71
2023/03/24 10:20:10;;;;;;;14.48;6.53;;;16.00;99.90;;;;;;5015321;28;20475;-70
2023/03/24 10:23:01;;;;;;;19.25;6.05;;;16.20;99.90;;;;;;5014528;28;20056;-71
2023/03/24 10:25:40;;;;;;;;;;;16.20;99.90;;;;;;5014079;28;20057;-70
2023/03/24 10:28:08;;;;;;;21.38;6.75;;;16.00;99.90;;;;;;5014765;28;20389;-70
2023/03/24 10:30:38;;;;;;;19.65;6.35;;;15.70;99.90;;;;;;5024936;28;20037;-70
2023/03/24 10:33:04;;;;;;;25.88;6.93;;;15.50;99.90;;;;;;5017426;28;20032;-71
2023/03/24 10:35:34;;;;;;;20.77;7.32;;;15.40;99.90;;;;;;5033669;28;20025;-71
2023/03/24 10:38:01;;;;;;;26.65;8.32;;;15.30;99.90;;;;;;5033043;28;20044;-70
2023/03/24 10:40:29;;;;;;;19.35;8.20;;;15.40;99.90;;;;;;5017104;28;20029;-71
2023/03/24 10:42:55;;;;;;;22.55;8.40;;;15.50;99.90;;;;;;5034811;28;20033;-71
2023/03/24 10:45:29;;;;;;;20.25;6.60;;;15.50;99.90;;;;;;5016505;28;20026;-70
2023/03/24 10:47:56;;;;;;;21.00;6.90;;;15.60;99.90;;;;;;5017010;28;20037;-71
2023/03/24 10:50:30;;;;;;;22.25;8.15;;;15.50;99.90;;;;;;5034062;28;20375;-70
2023/03/24 10:52:56;;;;;;;22.85;7.32;;;15.10;99.90;;;;;;5033028;28;20026;-71
2023/03/24 10:55:30;;;;;;;14.73;5.78;;;14.80;99.90;;;;;;5032930;28;20025;-71
2023/03/24 10:57:59;;;;;;;14.93;5.57;;;14.60;99.90;;;;;;5017623;28;20413;-71
2023/03/24 11:00:28;;;;;;;20.58;7.70;;;14.50;99.90;;;;;;5033575;28;20033;-71
2023/03/24 11:03:03;;;;;;;22.08;8.10;;;14.60;99.90;;;;;;5032418;28;20037;-71
2023/03/24 11:05:32;;;;;;;17.45;7.13;;;14.80;99.90;;;;;;5032642;28;20038;-71
2023/03/24 11:08:29;;;;;;;18.55;7.45;;;15.10;99.90;;;;;;5034241;28;20045;-71
2023/03/24 11:10:56;;;;;;;19.67;6.60;;;15.50;99.90;;;;;;5033801;28;20037;-71
2023/03/24 11:13:22;;;;;;;15.70;6.43;;;15.80;99.90;;;;;;5019487;28;20462;-71
2023/03/24 11:15:56;;;;;;;23.15;6.10;;;16.00;99.90;;;;;;5013524;28;20033;-71
2023/03/24 11:18:22;;;;;;;19.73;5.85;;;16.00;99.90;;;;;;5013799;28;20038;-71
2023/03/24 11:21:05;;;;;;;22.80;6.07;;;16.20;99.90;;;;;;5013905;28;20045;-70
2023/03/24 11:23:32;;;;;;;18.75;5.95;;;16.40;99.90;;;;;;5013609;28;20049;-71
2023/03/24 11:26:14;;;;;;;15.23;7.97;;;16.50;99.90;;;;;;4996411;28;20049;-71
2023/03/24 11:28:54;;;;;;;21.27;8.15;;;16.60;99.90;;;;;;5012217;28;20056;-70
2023/03/24 11:31:29;;;;;;;15.05;6.38;;;16.60;99.90;;;;;;5028516;28;20398;-70
2023/03/24 11:34:08;;;;;;;17.42;6.18;;;16.70;99.90;;;;;;5033575;28;20041;-70
2023/03/24 11:36:43;;;;;;;17.35;6.25;;;16.70;99.90;;;;;;5032214;28;20033;-71
2023/03/24 11:39:13;;;;;;;17.52;6.57;;;16.80;99.90;;;;;;5032269;28;20140;-71
2023/03/24 11:41:49;;;;;;;18.35;7.15;;;16.90;99.90;;;;;;5032022;28;20029;-71
2023/03/24 11:44:21;;;;;;;15.70;6.85;;;16.90;99.90;;;;;;5031995;28;20037;-71
2023/03/24 11:47:07;;;;;;;16.90;5.50;;;17.10;99.90;;;;;;5032771;28;20029;-70
2023/03/24 11:49:38;;;;;;;15.00;5.22;;;17.30;99.90;;;;;;5032176;28;20042;-70
2023/03/24 11:52:04;;;;;;;15.18;5.78;;;17.40;99.90;;;;;;5015785;28;20466;-70
2023/03/24 11:54:33;;;;;;;17.25;5.53;;;17.40;99.90;;;;;;5015755;28;20044;-71
2023/03/24 11:57:03;;;;;;;15.20;5.80;;;17.50;99.90;;;;;;5015481;28;20021;-71
2023/03/24 11:59:32;;;;;;;10.60;4.50;;;17.30;99.90;;;;;;5031715;28;20049;-71
2023/03/24 12:02:01;;;;;;;15.13;4.80;;;17.00;99.90;;;;;;5032443;28;20402;-70
2023/03/24 12:04:57;;;;;;;12.50;5.40;;;16.90;99.90;;;;;;5032629;28;20037;-70
2023/03/24 12:07:42;;;;;;;18.02;5.40;;;16.90;99.90;;;;;;5031848;28;20470;-70
2023/03/24 12:10:21;;;;;;;12.80;5.20;;;16.90;99.90;;;;;;5032701;28;20033;-71
2023/03/24 12:13:29;;;;;;;15.55;5.47;;;16.80;99.90;;;;;;5021770;28;20041;-71
2023/03/24 12:15:59;;;;;;;9.70;5.18;;;16.70;99.90;;;;;;5011378;28;20033;-71
2023/03/24 12:18:37;;;;;;;13.52;5.10;;;17.00;99.90;;;;;;5011510;28;20030;-71
2023/03/24 12:21:21;;;;;;;18.42;5.03;;;17.10;99.90;;;;;;5013024;28;20037;-71
2023/03/24 12:23:57;;;;;;;16.17;4.90;;;17.20;99.90;;;;;;5012602;28;20414;-71
2023/03/24 12:26:30;;;;;;;14.90;5.50;;;17.20;99.90;;;;;;5012544;28;20049;-71
2023/03/24 12:28:56;;;;;;;12.77;5.32;;;17.40;99.90;;;;;;5012226;28;20046;-71
2023/03/24 12:31:44;;;;;;;19.27;7.28;;;17.50;99.90;;;;;;5029234;28;20033;-71
2023/03/24 12:34:29;;;;;;;17.15;6.13;;;17.40;99.90;;;;;;5032069;28;20029;-70
2023/03/24 12:37:01;;;;;;;15.68;5.32;;;17.10;99.90;;;;;;5032339;28;20038;-71
2023/03/24 12:39:30;;;;;;;11.40;5.55;;;16.90;99.90;;;;;;5031103;28;20462;-71
2023/03/24 12:42:09;;;;;;;14.48;5.60;;;17.00;99.90;;;;;;5031304;28;20052;-71
2023/03/24 12:44:54;;;;;;;15.38;5.72;;;17.10;99.90;;;;;;5032469;28;20394;-71
2023/03/24 12:47:42;;;;;;;11.70;5.00;;;17.30;99.90;;;;;;5031894;28;20037;-70
2023/03/24 12:50:16;;;;;;;16.67;5.70;;;17.50;99.90;;;;;;5032179;28;20029;-71
2023/03/24 12:53:01;;;;;;;19.30;7.15;;;17.60;99.90;;;;;;5031105;28;20093;-70
2023/03/24 12:55:42;;;;;;;15.63;5.65;;;17.80;99.90;;;;;;5032134;28;20037;-71